createdAt,value
2018-05-07T00:00:40.763Z,51.96
2018-05-07T00:01:43.248Z,51.98
2018-05-07T00:02:45.781Z,51.97
2018-05-07T00:03:48.345Z,51.96
2018-05-07T00:04:50.908Z,51.97
2018-05-07T00:05:53.529Z,51.98
2018-05-07T00:06:55.958Z,51.97
2018-05-07T00:07:58.483Z,51.98
2018-05-07T00:09:00.954Z,51.98
2018-05-07T00:10:03.463Z,51.97
2018-05-07T00:11:05.986Z,51.98
2018-05-07T00:12:08.473Z,51.98
2018-05-07T00:13:10.979Z,51.98
2018-05-07T00:14:13.468Z,51.97
2018-05-07T00:15:15.992Z,52.00
2018-05-07T00:16:18.487Z,52.04
2018-05-07T00:17:20.986Z,52.05
2018-05-07T00:18:23.478Z,52.06
2018-05-07T00:19:25.966Z,52.10
2018-05-07T00:20:28.492Z,52.12
2018-05-07T00:21:30.980Z,52.12
2018-05-07T00:22:33.560Z,52.10
2018-05-07T00:23:36.001Z,52.08
2018-05-07T00:24:38.585Z,52.07
2018-05-07T00:25:41.074Z,52.06
2018-05-07T00:26:43.579Z,52.05
2018-05-07T00:27:46.099Z,52.05
2018-05-07T00:28:48.659Z,52.06
2018-05-07T00:29:51.220Z,52.03
2018-05-07T00:30:53.724Z,52.03
2018-05-07T00:31:56.243Z,52.05
2018-05-07T00:32:58.759Z,52.06
2018-05-07T00:34:01.267Z,52.05
2018-05-07T00:35:03.823Z,52.06
2018-05-07T00:36:06.313Z,52.05
2018-05-07T00:37:08.811Z,52.07
2018-05-07T00:38:11.358Z,52.12
2018-05-07T00:39:13.838Z,52.16
2018-05-07T00:40:16.314Z,52.17
2018-05-07T00:41:18.814Z,52.18
2018-05-07T00:42:21.281Z,52.18
2018-05-07T00:43:23.765Z,52.17
2018-05-07T00:44:26.289Z,52.20
2018-05-07T00:45:28.767Z,52.18
2018-05-07T00:46:31.258Z,52.19
2018-05-07T00:47:33.767Z,52.18
2018-05-07T00:48:36.261Z,52.19
2018-05-07T00:49:38.748Z,52.20
2018-05-07T00:50:41.232Z,52.21
2018-05-07T00:51:43.754Z,52.20
2018-05-07T00:52:46.256Z,52.21
2018-05-07T00:53:48.770Z,52.20
2018-05-07T00:55:03.174Z,52.21
2018-05-07T00:56:05.669Z,52.22
2018-05-07T00:57:08.184Z,52.24
2018-05-07T00:58:10.672Z,52.25
2018-05-07T00:59:13.160Z,52.26
2018-05-07T01:00:15.645Z,52.28
2018-05-07T01:01:18.129Z,52.25
2018-05-07T01:02:20.653Z,52.29
2018-05-07T01:03:23.123Z,52.30
2018-05-07T01:04:25.628Z,52.32
2018-05-07T01:05:28.132Z,52.33
2018-05-07T01:06:30.598Z,52.35
2018-05-07T01:07:33.098Z,52.36
2018-05-07T01:08:35.598Z,52.37
2018-05-07T01:09:38.066Z,52.37
2018-05-07T01:10:40.568Z,52.41
2018-05-07T01:11:43.068Z,52.39
2018-05-07T01:12:45.652Z,52.39
2018-05-07T01:13:48.141Z,52.40
2018-05-07T01:14:50.687Z,52.40
2018-05-07T01:15:53.175Z,52.39
2018-05-07T01:16:55.661Z,52.41
2018-05-07T01:17:58.169Z,52.41
2018-05-07T01:19:00.667Z,52.44
2018-05-07T01:20:03.142Z,52.44
2018-05-07T01:21:05.606Z,52.46
2018-05-07T01:22:08.087Z,52.46
2018-05-07T01:23:10.627Z,52.48
2018-05-07T01:24:13.112Z,52.50
2018-05-07T01:25:15.601Z,52.48
2018-05-07T01:26:18.103Z,52.50
2018-05-07T01:27:20.592Z,52.51
2018-05-07T01:28:23.107Z,52.51
2018-05-07T01:29:25.611Z,52.54
2018-05-07T01:30:28.097Z,52.54
2018-05-07T01:31:30.592Z,52.53
2018-05-07T01:32:33.079Z,52.53
2018-05-07T01:33:35.566Z,52.55
2018-05-07T01:34:38.050Z,52.55
2018-05-07T01:35:40.532Z,52.54
2018-05-07T01:36:43.025Z,52.54
2018-05-07T01:37:45.494Z,52.59
2018-05-07T01:38:47.995Z,52.59
2018-05-07T01:39:50.484Z,52.60
2018-05-07T01:40:53.082Z,52.60
2018-05-07T01:41:55.569Z,52.62
2018-05-07T01:42:58.071Z,52.66
2018-05-07T01:44:00.581Z,52.70
2018-05-07T01:45:03.065Z,52.72
2018-05-07T01:46:05.553Z,52.72
2018-05-07T01:47:08.040Z,52.74
2018-05-07T01:48:10.532Z,52.73
2018-05-07T01:49:13.203Z,52.74
2018-05-07T01:50:15.689Z,52.75
2018-05-07T01:51:18.189Z,52.74
2018-05-07T01:52:20.736Z,52.72
2018-05-07T01:53:23.207Z,52.74
2018-05-07T01:54:25.755Z,52.75
2018-05-07T01:55:28.292Z,52.77
2018-05-07T01:56:30.788Z,52.77
2018-05-07T01:57:33.333Z,52.76
2018-05-07T01:58:35.817Z,52.76
2018-05-07T01:59:38.302Z,52.77
2018-05-07T02:00:40.799Z,52.77
2018-05-07T02:01:43.303Z,52.77
2018-05-07T02:02:45.792Z,52.77
2018-05-07T02:03:48.295Z,52.78
2018-05-07T02:04:50.791Z,52.78
2018-05-07T02:05:53.307Z,52.83
2018-05-07T02:06:55.811Z,52.80
2018-05-07T02:07:58.312Z,52.82
2018-05-07T02:09:00.796Z,52.82
2018-05-07T02:10:03.322Z,52.83
2018-05-07T02:11:05.827Z,52.84
2018-05-07T02:12:08.317Z,52.84
2018-05-07T02:13:10.815Z,52.84
2018-05-07T02:14:13.300Z,52.84
2018-05-07T02:15:15.831Z,52.84
2018-05-07T02:16:18.301Z,52.84
2018-05-07T02:17:20.782Z,52.88
2018-05-07T02:18:23.264Z,52.86
2018-05-07T02:19:25.787Z,52.88
2018-05-07T02:20:28.266Z,52.90
2018-05-07T02:21:30.735Z,52.90
2018-05-07T02:22:33.251Z,52.91
2018-05-07T02:23:35.737Z,52.90
2018-05-07T02:24:38.240Z,52.92
2018-05-07T02:25:40.725Z,52.90
2018-05-07T02:26:43.291Z,52.93
2018-05-07T02:27:45.766Z,52.92
2018-05-07T02:28:48.293Z,52.95
2018-05-07T02:29:50.781Z,52.95
2018-05-07T02:30:53.274Z,52.94
2018-05-07T02:31:55.761Z,52.94
2018-05-07T02:32:58.245Z,52.96
2018-05-07T02:34:00.729Z,52.96
2018-05-07T02:35:03.221Z,52.96
2018-05-07T02:36:05.715Z,52.97
2018-05-07T02:37:08.188Z,52.97
2018-05-07T02:38:10.676Z,52.97
2018-05-07T02:39:13.174Z,52.98
2018-05-07T02:40:15.842Z,52.98
2018-05-07T02:41:18.402Z,52.99
2018-05-07T02:42:20.889Z,52.98
2018-05-07T02:43:23.376Z,52.97
2018-05-07T02:44:25.886Z,52.97
2018-05-07T02:45:28.399Z,53.07
2018-05-07T02:46:30.905Z,53.09
2018-05-07T02:47:33.397Z,53.15
2018-05-07T02:48:35.903Z,53.18
2018-05-07T02:49:38.392Z,53.20
2018-05-07T02:50:40.876Z,53.18
2018-05-07T02:51:43.385Z,53.18
2018-05-07T02:52:45.899Z,53.17
2018-05-07T02:53:48.392Z,53.19
2018-05-07T02:54:50.883Z,53.19
2018-05-07T02:55:53.424Z,53.18
2018-05-07T02:56:55.960Z,53.16
2018-05-07T02:57:58.464Z,53.17
2018-05-07T02:59:00.939Z,53.16
2018-05-07T03:00:03.420Z,53.15
2018-05-07T03:01:05.923Z,53.13
2018-05-07T03:02:08.438Z,53.13
2018-05-07T03:03:10.907Z,53.15
2018-05-07T03:04:13.727Z,53.16
2018-05-07T03:05:16.199Z,53.16
2018-05-07T03:06:18.689Z,53.18
2018-05-07T03:07:21.197Z,53.16
2018-05-07T03:08:23.668Z,53.16
2018-05-07T03:09:26.166Z,53.19
2018-05-07T03:10:28.650Z,53.20
2018-05-07T03:11:31.160Z,53.19
2018-05-07T03:12:33.679Z,53.15
2018-05-07T03:13:36.200Z,53.17
2018-05-07T03:14:38.674Z,53.17
2018-05-07T03:15:41.173Z,53.16
2018-05-07T03:16:43.645Z,53.16
2018-05-07T03:17:46.148Z,53.16
2018-05-07T03:18:48.634Z,53.16
2018-05-07T03:19:51.121Z,53.15
2018-05-07T03:20:53.607Z,53.14
2018-05-07T03:21:56.089Z,53.15
2018-05-07T03:22:58.612Z,53.16
2018-05-07T03:24:01.110Z,53.15
2018-05-07T03:25:03.601Z,53.16
2018-05-07T03:26:06.070Z,53.16
2018-05-07T03:27:08.571Z,53.17
2018-05-07T03:28:11.058Z,53.16
2018-05-07T03:29:13.527Z,53.23
2018-05-07T03:30:15.995Z,53.26
2018-05-07T03:31:18.477Z,53.28
2018-05-07T03:32:20.970Z,53.30
2018-05-07T03:33:23.468Z,53.33
2018-05-07T03:34:25.956Z,53.37
2018-05-07T03:35:28.437Z,53.41
2018-05-07T03:36:30.970Z,53.44
2018-05-07T03:37:33.476Z,53.46
2018-05-07T03:38:35.959Z,53.47
2018-05-07T03:39:38.488Z,53.56
2018-05-07T03:40:41.048Z,53.54
2018-05-07T03:41:43.616Z,53.49
2018-05-07T03:42:46.086Z,53.45
2018-05-07T03:43:48.627Z,53.44
2018-05-07T03:44:51.133Z,53.45
2018-05-07T03:45:53.621Z,53.47
2018-05-07T03:46:56.184Z,53.47
2018-05-07T03:47:58.650Z,53.46
2018-05-07T03:49:01.153Z,53.47
2018-05-07T03:50:03.661Z,53.47
2018-05-07T03:51:06.168Z,53.47
2018-05-07T03:52:08.661Z,53.46
2018-05-07T03:53:11.157Z,53.45
2018-05-07T03:54:13.665Z,53.46
2018-05-07T03:55:16.172Z,53.46
2018-05-07T03:56:18.678Z,53.45
2018-05-07T03:57:21.179Z,53.46
2018-05-07T03:58:23.690Z,53.43
2018-05-07T03:59:26.218Z,53.42
2018-05-07T04:00:28.724Z,53.41
2018-05-07T04:01:31.199Z,53.42
2018-05-07T04:02:33.788Z,53.46
2018-05-07T04:03:36.282Z,53.46
2018-05-07T04:04:38.802Z,53.48
2018-05-07T04:05:41.363Z,53.49
2018-05-07T04:06:43.842Z,53.50
2018-05-07T04:07:46.384Z,53.48
2018-05-07T04:08:48.877Z,53.49
2018-05-07T04:09:51.362Z,53.51
2018-05-07T04:10:53.852Z,53.49
2018-05-07T04:11:56.322Z,53.48
2018-05-07T04:12:58.823Z,53.50
2018-05-07T04:14:01.306Z,53.49
2018-05-07T04:15:03.808Z,53.50
2018-05-07T04:16:06.296Z,53.49
2018-05-07T04:17:20.490Z,53.48
2018-05-07T04:18:34.702Z,53.52
2018-05-07T04:19:49.253Z,53.50
2018-05-07T04:21:03.596Z,53.48
2018-05-07T04:22:17.924Z,53.50
2018-05-07T04:23:32.307Z,53.52
2018-05-07T04:24:34.811Z,53.52
2018-05-07T04:25:37.302Z,53.53
2018-05-07T04:26:39.788Z,53.53
2018-05-07T04:27:42.258Z,53.53
2018-05-07T04:28:44.744Z,53.57
2018-05-07T04:29:47.234Z,53.58
2018-05-07T04:30:49.706Z,53.59
2018-05-07T04:31:52.228Z,53.59
2018-05-07T04:32:54.788Z,53.59
2018-05-07T04:33:57.351Z,53.60
2018-05-07T04:34:59.846Z,53.61
2018-05-07T04:36:02.333Z,53.62
2018-05-07T04:37:04.823Z,53.63
2018-05-07T04:38:07.317Z,53.67
2018-05-07T04:39:09.815Z,53.66
2018-05-07T04:40:12.338Z,53.66
2018-05-07T04:41:14.842Z,53.69
2018-05-07T04:42:17.336Z,53.78
2018-05-07T04:43:19.900Z,53.83
2018-05-07T04:44:22.306Z,53.81
2018-05-07T04:45:24.813Z,53.82
2018-05-07T04:46:27.355Z,53.87
2018-05-07T04:47:29.909Z,53.89
2018-05-07T04:48:32.397Z,53.91
2018-05-07T04:49:34.891Z,53.93
2018-05-07T04:50:37.406Z,53.95
2018-05-07T04:51:39.949Z,53.96
2018-05-07T04:52:42.508Z,53.95
2018-05-07T04:53:45.067Z,53.94
2018-05-07T04:54:47.546Z,53.93
2018-05-07T04:55:50.092Z,54.05
2018-05-07T04:56:52.583Z,53.52
2018-05-07T04:57:55.073Z,53.25
2018-05-07T04:58:57.577Z,53.29
2018-05-07T05:00:00.059Z,53.29
2018-05-07T05:01:02.577Z,53.31
2018-05-07T05:02:05.064Z,53.31
2018-05-07T05:03:07.567Z,53.28
2018-05-07T05:04:10.038Z,53.14
2018-05-07T05:05:12.523Z,52.99
2018-05-07T05:06:15.106Z,52.86
2018-05-07T05:07:17.756Z,52.62
2018-05-07T05:08:20.127Z,52.71
2018-05-07T05:09:22.612Z,52.65
2018-05-07T05:10:25.101Z,52.77
2018-05-07T05:11:27.668Z,52.91
2018-05-07T05:12:30.226Z,52.95
2018-05-07T05:13:32.712Z,52.96
2018-05-07T05:14:35.191Z,53.00
2018-05-07T05:15:37.701Z,52.67
2018-05-07T05:16:40.222Z,52.54
2018-05-07T05:17:42.703Z,52.38
2018-05-07T05:18:45.171Z,52.12
2018-05-07T05:19:47.709Z,52.22
2018-05-07T05:20:50.289Z,52.30
2018-05-07T05:21:52.797Z,52.34
2018-05-07T05:22:55.422Z,52.37
2018-05-07T05:23:57.983Z,52.50
2018-05-07T05:25:00.504Z,52.54
2018-05-07T05:26:03.100Z,52.64
2018-05-07T05:27:05.661Z,52.64
2018-05-07T05:28:08.168Z,52.56
2018-05-07T05:29:10.665Z,52.55
2018-05-07T05:30:13.157Z,52.59
2018-05-07T05:31:15.640Z,52.60
2018-05-07T05:32:18.156Z,52.57
2018-05-07T05:33:20.652Z,52.52
2018-05-07T05:34:23.151Z,52.47
2018-05-07T05:35:25.645Z,52.40
2018-05-07T05:36:28.121Z,52.37
2018-05-07T05:37:30.603Z,52.33
2018-05-07T05:38:33.096Z,52.32
2018-05-07T05:39:35.607Z,52.27
2018-05-07T05:40:38.108Z,52.20
2018-05-07T05:41:40.614Z,52.19
2018-05-07T05:42:43.151Z,52.19
2018-05-07T05:43:45.793Z,52.20
2018-05-07T05:44:48.234Z,52.20
2018-05-07T05:45:50.728Z,52.19
2018-05-07T05:46:53.227Z,52.19
2018-05-07T05:47:55.734Z,52.18
2018-05-07T05:48:58.220Z,52.19
2018-05-07T05:50:00.809Z,52.18
2018-05-07T05:51:03.314Z,52.16
2018-05-07T05:52:05.801Z,52.15
2018-05-07T05:53:08.309Z,52.10
2018-05-07T05:54:10.803Z,52.04
2018-05-07T05:55:13.293Z,52.00
2018-05-07T05:56:15.856Z,51.98
2018-05-07T05:57:18.308Z,52.01
2018-05-07T05:58:20.806Z,52.02
2018-05-07T05:59:23.299Z,52.01
2018-05-07T06:00:25.788Z,51.98
2018-05-07T06:01:28.315Z,51.97
2018-05-07T06:02:30.910Z,51.94
2018-05-07T06:03:33.410Z,51.96
2018-05-07T06:04:35.903Z,51.98
2018-05-07T06:05:38.483Z,52.00
2018-05-07T06:06:41.002Z,51.97
2018-05-07T06:07:43.493Z,51.96
2018-05-07T06:08:46.004Z,51.97
2018-05-07T06:09:48.516Z,52.01
2018-05-07T06:10:50.985Z,52.02
2018-05-07T06:11:53.535Z,52.00
2018-05-07T06:12:56.092Z,51.98
2018-05-07T06:13:58.654Z,51.97
2018-05-07T06:15:01.234Z,51.97
2018-05-07T06:16:03.674Z,51.96
2018-05-07T06:17:06.158Z,51.95
2018-05-07T06:18:08.691Z,51.95
2018-05-07T06:19:11.200Z,51.94
2018-05-07T06:20:13.708Z,51.93
2018-05-07T06:21:16.251Z,51.94
2018-05-07T06:22:18.712Z,51.93
2018-05-07T06:23:21.211Z,51.92
2018-05-07T06:24:23.733Z,51.92
2018-05-07T06:25:26.217Z,51.92
2018-05-07T06:26:28.704Z,51.91
2018-05-07T06:27:31.211Z,51.88
2018-05-07T06:28:33.717Z,51.90
2018-05-07T06:29:36.263Z,51.92
2018-05-07T06:30:38.994Z,51.93
2018-05-07T06:31:41.469Z,51.93
2018-05-07T06:32:43.949Z,51.95
2018-05-07T06:33:46.437Z,51.96
2018-05-07T06:34:48.937Z,51.97
2018-05-07T06:35:51.448Z,51.96
2018-05-07T06:36:53.980Z,51.96
2018-05-07T06:37:56.544Z,51.96
2018-05-07T06:38:59.101Z,51.96
2018-05-07T06:40:01.619Z,51.96
2018-05-07T06:41:04.124Z,51.96
2018-05-07T06:42:06.613Z,51.97
2018-05-07T06:43:09.104Z,51.98
2018-05-07T06:44:11.609Z,51.98
2018-05-07T06:45:14.153Z,51.98
2018-05-07T06:46:16.666Z,51.96
2018-05-07T06:47:19.156Z,51.94
2018-05-07T06:48:21.645Z,51.94
2018-05-07T06:49:24.128Z,51.94
2018-05-07T06:50:26.614Z,51.95
2018-05-07T06:51:29.174Z,51.95
2018-05-07T06:52:31.683Z,51.95
2018-05-07T06:53:34.225Z,51.95
2018-05-07T06:54:36.712Z,51.94
2018-05-07T06:55:39.200Z,51.94
2018-05-07T06:56:41.709Z,51.93
2018-05-07T06:57:44.186Z,51.92
2018-05-07T06:58:46.676Z,51.92
2018-05-07T06:59:49.165Z,51.92
2018-05-07T07:00:51.687Z,51.92
2018-05-07T07:01:54.173Z,51.91
2018-05-07T07:02:56.806Z,51.89
2018-05-07T07:03:59.215Z,51.88
2018-05-07T07:05:01.877Z,51.90
2018-05-07T07:06:04.379Z,51.88
2018-05-07T07:07:06.846Z,51.87
2018-05-07T07:08:09.426Z,51.86
2018-05-07T07:09:11.875Z,51.85
2018-05-07T07:10:14.381Z,51.84
2018-05-07T07:11:16.900Z,51.84
2018-05-07T07:12:19.389Z,51.84
2018-05-07T07:13:21.864Z,51.83
2018-05-07T07:14:24.353Z,51.82
2018-05-07T07:15:26.827Z,51.81
2018-05-07T07:16:29.420Z,51.79
2018-05-07T07:17:31.826Z,51.78
2018-05-07T07:18:34.336Z,51.77
2018-05-07T07:19:36.806Z,51.78
2018-05-07T07:20:39.282Z,51.79
2018-05-07T07:21:41.804Z,51.79
2018-05-07T07:22:44.288Z,51.77
2018-05-07T07:23:46.777Z,51.76
2018-05-07T07:24:49.260Z,51.76
2018-05-07T07:25:51.771Z,51.75
2018-05-07T07:26:54.270Z,51.74
2018-05-07T07:27:56.847Z,51.74
2018-05-07T07:28:59.265Z,51.73
2018-05-07T07:30:01.743Z,51.73
2018-05-07T07:31:04.231Z,51.72
2018-05-07T07:32:06.745Z,51.71
2018-05-07T07:33:09.235Z,51.72
2018-05-07T07:34:11.759Z,51.71
2018-05-07T07:35:14.285Z,51.70
2018-05-07T07:36:16.784Z,51.70
2018-05-07T07:37:19.293Z,51.69
2018-05-07T07:38:21.781Z,51.69
2018-05-07T07:39:24.408Z,51.68
2018-05-07T07:40:26.880Z,51.68
2018-05-07T07:41:29.480Z,51.68
2018-05-07T07:42:31.992Z,51.68
2018-05-07T07:43:34.490Z,51.67
2018-05-07T07:44:37.002Z,51.66
2018-05-07T07:45:39.488Z,51.65
2018-05-07T07:46:41.974Z,51.65
2018-05-07T07:47:44.493Z,51.65
2018-05-07T07:48:46.977Z,51.63
2018-05-07T07:49:49.465Z,51.63
2018-05-07T07:50:51.973Z,51.63
2018-05-07T07:51:54.466Z,51.61
2018-05-07T07:52:56.978Z,51.62
2018-05-07T07:53:59.454Z,51.60
2018-05-07T07:55:02.023Z,51.60
2018-05-07T07:56:04.502Z,51.59
2018-05-07T07:57:07.032Z,51.60
2018-05-07T07:58:09.581Z,51.59
2018-05-07T07:59:12.065Z,51.58
2018-05-07T08:00:14.561Z,51.57
2018-05-07T08:01:17.050Z,51.57
2018-05-07T08:02:19.548Z,51.57
2018-05-07T08:03:22.067Z,51.56
2018-05-07T08:04:24.575Z,51.55
2018-05-07T08:05:27.135Z,51.55
2018-05-07T08:06:29.696Z,51.55
2018-05-07T08:07:32.183Z,51.54
2018-05-07T08:08:34.703Z,51.53
2018-05-07T08:09:37.225Z,51.53
2018-05-07T08:10:39.725Z,51.52
2018-05-07T08:11:42.211Z,51.52
2018-05-07T08:12:44.684Z,51.51
2018-05-07T08:13:47.203Z,51.51
2018-05-07T08:14:49.711Z,51.50
2018-05-07T08:15:52.212Z,51.49
2018-05-07T08:16:54.689Z,51.49
2018-05-07T08:17:57.191Z,51.48
2018-05-07T08:18:59.700Z,51.48
2018-05-07T08:20:02.182Z,51.47
2018-05-07T08:21:04.684Z,51.46
2018-05-07T08:22:07.482Z,51.46
2018-05-07T08:23:09.950Z,51.45
2018-05-07T08:24:12.475Z,51.44
2018-05-07T08:25:14.980Z,51.44
2018-05-07T08:26:17.546Z,51.43
2018-05-07T08:27:20.106Z,51.43
2018-05-07T08:28:22.663Z,51.42
2018-05-07T08:29:25.154Z,51.42
2018-05-07T08:30:27.693Z,51.39
2018-05-07T08:31:30.129Z,51.38
2018-05-07T08:32:32.704Z,51.38
2018-05-07T08:33:35.219Z,51.36
2018-05-07T08:34:37.725Z,51.35
2018-05-07T08:35:40.198Z,51.35
2018-05-07T08:36:42.707Z,51.35
2018-05-07T08:37:45.230Z,51.33
2018-05-07T08:38:47.747Z,51.33
2018-05-07T08:39:50.279Z,51.31
2018-05-07T08:40:52.763Z,51.29
2018-05-07T08:41:55.234Z,51.28
2018-05-07T08:42:57.728Z,51.28
2018-05-07T08:44:00.246Z,51.28
2018-05-07T08:45:02.750Z,51.28
2018-05-07T08:46:05.271Z,51.27
2018-05-07T08:47:07.775Z,51.27
2018-05-07T08:48:10.360Z,51.26
2018-05-07T08:49:13.250Z,51.26
2018-05-07T08:50:15.742Z,51.25
2018-05-07T08:51:18.269Z,51.24
2018-05-07T08:52:20.777Z,51.22
2018-05-07T08:53:23.257Z,51.22
2018-05-07T08:54:25.734Z,51.21
2018-05-07T08:55:28.237Z,51.18
2018-05-07T08:56:30.720Z,51.18
2018-05-07T08:57:33.219Z,51.17
2018-05-07T08:58:35.704Z,51.15
2018-05-07T08:59:38.211Z,51.14
2018-05-07T09:00:40.732Z,51.14
2018-05-07T09:01:43.228Z,51.14
2018-05-07T09:02:45.716Z,51.14
2018-05-07T09:03:48.210Z,51.14
2018-05-07T09:04:50.720Z,51.12
2018-05-07T09:05:53.210Z,51.11
2018-05-07T09:06:55.748Z,51.12
2018-05-07T09:07:58.304Z,51.11
2018-05-07T09:09:00.751Z,51.11
2018-05-07T09:10:03.244Z,51.10
2018-05-07T09:11:05.750Z,51.10
2018-05-07T09:12:08.306Z,51.09
2018-05-07T09:13:10.811Z,51.09
2018-05-07T09:14:13.345Z,51.08
2018-05-07T09:15:15.828Z,51.08
2018-05-07T09:16:18.375Z,51.07
2018-05-07T09:17:20.849Z,51.07
2018-05-07T09:18:23.341Z,51.06
2018-05-07T09:19:25.818Z,51.06
2018-05-07T09:20:28.293Z,51.04
2018-05-07T09:21:30.783Z,51.04
2018-05-07T09:22:33.250Z,51.03
2018-05-07T09:23:35.744Z,51.03
2018-05-07T09:24:38.294Z,51.01
2018-05-07T09:25:40.723Z,51.01
2018-05-07T09:26:43.237Z,51.01
2018-05-07T09:27:45.729Z,50.99
2018-05-07T09:28:48.235Z,50.99
2018-05-07T09:29:50.743Z,50.99
2018-05-07T09:30:53.214Z,50.99
2018-05-07T09:31:55.739Z,50.98
2018-05-07T09:32:58.253Z,50.97
2018-05-07T09:34:00.737Z,50.97
2018-05-07T09:35:03.336Z,50.96
2018-05-07T09:36:05.825Z,50.94
2018-05-07T09:37:08.425Z,50.94
2018-05-07T09:38:10.866Z,50.93
2018-05-07T09:39:13.369Z,50.93
2018-05-07T09:40:15.885Z,50.92
2018-05-07T09:41:18.381Z,50.91
2018-05-07T09:42:20.899Z,50.91
2018-05-07T09:43:23.403Z,50.90
2018-05-07T09:44:25.873Z,50.90
2018-05-07T09:45:28.373Z,50.89
2018-05-07T09:46:30.842Z,50.88
2018-05-07T09:47:33.346Z,50.88
2018-05-07T09:48:35.836Z,50.88
2018-05-07T09:49:38.334Z,50.87
2018-05-07T09:50:40.821Z,50.88
2018-05-07T09:51:43.322Z,50.86
2018-05-07T09:52:45.829Z,50.85
2018-05-07T09:53:48.325Z,50.84
2018-05-07T09:54:50.795Z,50.84
2018-05-07T09:55:53.276Z,50.83
2018-05-07T09:56:56.762Z,50.82
2018-05-07T09:58:05.006Z,50.82
2018-05-07T09:59:07.495Z,50.81
2018-05-07T10:00:09.970Z,50.81
2018-05-07T10:01:12.461Z,50.80
2018-05-07T10:02:14.930Z,50.80
2018-05-07T10:03:17.436Z,50.79
2018-05-07T10:04:19.929Z,50.79
2018-05-07T10:05:22.418Z,50.78
2018-05-07T10:06:24.891Z,50.77
2018-05-07T10:07:27.378Z,50.77
2018-05-07T10:08:29.960Z,50.77
2018-05-07T10:09:32.408Z,50.76
2018-05-07T10:10:34.896Z,50.76
2018-05-07T10:11:37.398Z,50.75
2018-05-07T10:12:39.905Z,50.75
2018-05-07T10:13:42.431Z,50.74
2018-05-07T10:14:44.921Z,50.73
2018-05-07T10:15:47.413Z,50.72
2018-05-07T10:16:49.919Z,50.72
2018-05-07T10:17:52.391Z,50.71
2018-05-07T10:18:54.900Z,50.71
2018-05-07T10:19:57.406Z,50.70
2018-05-07T10:20:59.951Z,50.71
2018-05-07T10:22:02.527Z,50.70
2018-05-07T10:23:05.018Z,50.69
2018-05-07T10:24:07.552Z,50.68
2018-05-07T10:25:10.109Z,50.67
2018-05-07T10:26:12.614Z,50.67
2018-05-07T10:27:15.107Z,50.67
2018-05-07T10:28:17.614Z,50.65
2018-05-07T10:29:20.128Z,50.65
2018-05-07T10:30:22.613Z,50.64
2018-05-07T10:31:25.094Z,50.64
2018-05-07T10:32:27.625Z,50.64
2018-05-07T10:33:30.102Z,50.63
2018-05-07T10:34:32.639Z,50.62
2018-05-07T10:35:35.114Z,50.62
2018-05-07T10:36:37.605Z,50.62
2018-05-07T10:37:40.092Z,50.62
2018-05-07T10:38:42.581Z,50.61
2018-05-07T10:39:45.089Z,50.60
2018-05-07T10:40:47.562Z,50.60
2018-05-07T10:41:50.052Z,50.60
2018-05-07T10:42:52.603Z,50.60
2018-05-07T10:43:55.101Z,50.59
2018-05-07T10:44:57.625Z,50.60
2018-05-07T10:46:00.108Z,50.59
2018-05-07T10:47:02.579Z,50.57
2018-05-07T10:48:05.800Z,50.57
2018-05-07T10:49:08.325Z,50.57
2018-05-07T10:50:10.883Z,50.56
2018-05-07T10:51:13.369Z,50.56
2018-05-07T10:52:16.365Z,50.56
2018-05-07T10:53:18.848Z,50.56
2018-05-07T10:54:21.351Z,50.55
2018-05-07T10:55:23.839Z,50.55
2018-05-07T10:56:26.302Z,50.55
2018-05-07T10:57:28.832Z,50.54
2018-05-07T10:58:31.317Z,50.53
2018-05-07T10:59:33.813Z,50.53
2018-05-07T11:00:36.327Z,50.52
2018-05-07T11:01:38.879Z,50.51
2018-05-07T11:02:41.351Z,50.50
2018-05-07T11:03:43.908Z,50.49
2018-05-07T11:04:46.400Z,50.49
2018-05-07T11:05:48.923Z,50.48
2018-05-07T11:06:51.483Z,50.48
2018-05-07T11:07:53.992Z,50.48
2018-05-07T11:08:56.489Z,50.48
2018-05-07T11:09:58.997Z,50.47
2018-05-07T11:11:01.529Z,50.47
2018-05-07T11:12:04.046Z,50.46
2018-05-07T11:13:06.621Z,50.46
2018-05-07T11:14:09.105Z,50.45
2018-05-07T11:15:11.590Z,50.46
2018-05-07T11:16:14.089Z,50.45
2018-05-07T11:17:16.596Z,50.45
2018-05-07T11:18:19.070Z,50.45
2018-05-07T11:19:21.551Z,50.44
2018-05-07T11:20:24.056Z,50.42
2018-05-07T11:21:26.613Z,50.42
2018-05-07T11:22:29.169Z,50.42
2018-05-07T11:23:31.732Z,50.42
2018-05-07T11:24:34.249Z,50.42
2018-05-07T11:25:36.768Z,50.42
2018-05-07T11:26:39.251Z,50.39
2018-05-07T11:27:41.746Z,50.37
2018-05-07T11:28:44.218Z,50.35
2018-05-07T11:29:46.773Z,50.35
2018-05-07T11:30:49.260Z,50.36
2018-05-07T11:31:51.790Z,50.36
2018-05-07T11:32:54.263Z,50.36
2018-05-07T11:33:56.749Z,50.37
2018-05-07T11:34:59.265Z,50.36
2018-05-07T11:36:01.767Z,50.36
2018-05-07T11:37:04.279Z,50.36
2018-05-07T11:38:06.764Z,50.36
2018-05-07T11:39:09.357Z,50.36
2018-05-07T11:40:11.862Z,50.36
2018-05-07T11:41:14.423Z,50.36
2018-05-07T11:42:16.985Z,50.36
2018-05-07T11:43:19.459Z,50.36
2018-05-07T11:44:21.945Z,50.35
2018-05-07T11:45:24.447Z,50.35
2018-05-07T11:46:26.938Z,50.34
2018-05-07T11:47:29.538Z,50.33
2018-05-07T11:48:31.999Z,50.33
2018-05-07T11:49:34.503Z,50.34
2018-05-07T11:50:36.992Z,50.35
2018-05-07T11:51:39.476Z,50.34
2018-05-07T11:52:41.982Z,50.34
2018-05-07T11:53:44.468Z,50.35
2018-05-07T11:54:46.975Z,50.36
2018-05-07T11:55:49.461Z,50.34
2018-05-07T11:56:51.949Z,50.34
2018-05-07T11:57:54.452Z,50.34
2018-05-07T11:58:57.023Z,50.34
2018-05-07T11:59:59.514Z,50.34
2018-05-07T12:01:01.982Z,50.35
2018-05-07T12:02:04.468Z,50.35
2018-05-07T12:03:06.972Z,50.34
2018-05-07T12:05:18.236Z,50.34
2018-05-07T12:06:20.778Z,50.34
2018-05-07T12:07:23.340Z,50.35
2018-05-07T12:08:25.899Z,50.34
2018-05-07T12:09:28.373Z,50.34
2018-05-07T12:10:30.861Z,50.35
2018-05-07T12:11:33.373Z,50.35
2018-05-07T12:12:35.875Z,50.36
2018-05-07T12:13:38.385Z,50.36
2018-05-07T12:14:40.872Z,50.36
2018-05-07T12:15:43.416Z,50.35
2018-05-07T12:16:45.871Z,50.35
2018-05-07T12:17:48.364Z,50.34
2018-05-07T12:18:50.853Z,50.33
2018-05-07T12:19:53.329Z,50.33
2018-05-07T12:20:55.809Z,50.30
2018-05-07T12:21:58.315Z,50.28
2018-05-07T12:23:00.802Z,50.26
2018-05-07T12:24:03.366Z,50.26
2018-05-07T12:25:05.839Z,50.27
2018-05-07T12:26:08.325Z,50.26
2018-05-07T12:27:10.814Z,50.26
2018-05-07T12:28:13.301Z,50.23
2018-05-07T12:29:15.852Z,50.21
2018-05-07T12:30:18.329Z,50.23
2018-05-07T12:31:20.880Z,50.22
2018-05-07T12:32:23.329Z,50.22
2018-05-07T12:33:25.831Z,50.21
2018-05-07T12:34:28.338Z,50.20
2018-05-07T12:35:30.825Z,50.19
2018-05-07T12:36:33.299Z,50.19
2018-05-07T12:37:35.802Z,50.19
2018-05-07T12:38:38.298Z,50.20
2018-05-07T12:39:40.805Z,50.18
2018-05-07T12:40:43.342Z,50.18
2018-05-07T12:41:45.829Z,50.18
2018-05-07T12:42:48.331Z,50.16
2018-05-07T12:43:50.896Z,50.15
2018-05-07T12:44:53.478Z,50.14
2018-05-07T12:45:55.894Z,50.15
2018-05-07T12:46:58.471Z,50.16
2018-05-07T12:48:01.032Z,50.16
2018-05-07T12:49:03.530Z,50.17
2018-05-07T12:50:06.040Z,50.17
2018-05-07T12:51:08.543Z,50.16
2018-05-07T12:52:11.071Z,50.15
2018-05-07T12:53:13.634Z,50.15
2018-05-07T12:54:16.106Z,50.15
2018-05-07T12:55:18.594Z,50.10
2018-05-07T12:56:21.102Z,50.13
2018-05-07T12:57:23.583Z,50.13
2018-05-07T12:58:26.074Z,50.14
2018-05-07T12:59:28.546Z,50.14
2018-05-07T13:00:31.052Z,50.13
2018-05-07T13:01:33.522Z,50.12
2018-05-07T13:02:36.040Z,50.12
2018-05-07T13:03:38.610Z,50.13
2018-05-07T13:04:41.124Z,50.14
2018-05-07T13:05:43.682Z,50.13
2018-05-07T13:06:46.151Z,50.13
2018-05-07T13:07:48.623Z,50.14
2018-05-07T13:08:51.123Z,50.14
2018-05-07T13:09:53.612Z,50.13
2018-05-07T13:10:56.103Z,50.13
2018-05-07T13:11:58.595Z,50.13
2018-05-07T13:13:01.155Z,50.13
2018-05-07T13:14:03.613Z,50.14
2018-05-07T13:15:06.083Z,50.13
2018-05-07T13:16:08.590Z,50.13
2018-05-07T13:17:11.102Z,50.13
2018-05-07T13:18:13.551Z,50.12
2018-05-07T13:19:16.037Z,50.12
2018-05-07T13:20:18.524Z,50.12
2018-05-07T13:21:21.028Z,50.11
2018-05-07T13:22:23.502Z,50.11
2018-05-07T13:23:25.971Z,50.11
2018-05-07T13:24:28.477Z,50.12
2018-05-07T13:25:30.987Z,50.13
2018-05-07T13:26:33.515Z,50.13
2018-05-07T13:27:36.000Z,50.12